sensor_id;sensor_type;location;lat;lon;timestamp;pressure;altitude;pressure_sealevel;temperature;humidity
17635;BME280;8936;49.010;12.120;2023-05-25T00:00:09;98286.41;;;17.34;76.30
17635;BME280;8936;49.010;12.120;2023-05-25T00:02:35;98282.19;;;17.27;76.31
17635;BME280;8936;49.010;12.120;2023-05-25T00:05:02;98289.09;;;17.20;76.73
17635;BME280;8936;49.010;12.120;2023-05-25T00:07:28;98290.03;;;16.78;79.17
17635;BME280;8936;49.010;12.120;2023-05-25T00:09:54;98285.19;;;16.61;82.13
17635;BME280;8936;49.010;12.120;2023-05-25T00:12:21;98285.94;;;16.43;84.25
17635;BME280;8936;49.010;12.120;2023-05-25T00:14:47;98284.50;;;16.88;81.48
17635;BME280;8936;49.010;12.120;2023-05-25T00:17:15;98284.50;;;16.88;80.51
17635;BME280;8936;49.010;12.120;2023-05-25T00:19:42;98285.25;;;17.07;79.10
17635;BME280;8936;49.010;12.120;2023-05-25T00:22:09;98289.56;;;17.54;76.15
17635;BME280;8936;49.010;12.120;2023-05-25T00:24:35;98283.28;;;17.86;73.50
17635;BME280;8936;49.010;12.120;2023-05-25T00:27:02;98291.47;;;18.08;71.77
17635;BME280;8936;49.010;12.120;2023-05-25T00:29:28;98283.69;;;17.79;72.50
17635;BME280;8936;49.010;12.120;2023-05-25T00:31:55;98283.88;;;17.56;73.77
17635;BME280;8936;49.010;12.120;2023-05-25T00:34:23;98277.16;;;17.07;76.60
17635;BME280;8936;49.010;12.120;2023-05-25T00:36:49;98278.97;;;16.24;84.69
17635;BME280;8936;49.010;12.120;2023-05-25T00:39:16;98271.25;;;16.73;82.79
17635;BME280;8936;49.010;12.120;2023-05-25T00:41:43;98267.03;;;16.67;82.61
17635;BME280;8936;49.010;12.120;2023-05-25T00:44:10;98262.41;;;16.86;81.14
17635;BME280;8936;49.010;12.120;2023-05-25T00:46:40;98260.00;;;17.17;79.47
17635;BME280;8936;49.010;12.120;2023-05-25T00:49:09;98266.03;;;16.95;81.01
17635;BME280;8936;49.010;12.120;2023-05-25T00:51:39;98263.59;;;16.80;81.86
17635;BME280;8936;49.010;12.120;2023-05-25T00:54:06;98267.53;;;16.69;81.39
17635;BME280;8936;49.010;12.120;2023-05-25T00:56:34;98270.66;;;16.39;83.48
17635;BME280;8936;49.010;12.120;2023-05-25T00:59:05;98269.72;;;16.67;81.93
17635;BME280;8936;49.010;12.120;2023-05-25T01:01:34;98263.31;;;16.63;80.64
17635;BME280;8936;49.010;12.120;2023-05-25T01:04:04;98273.44;;;16.71;81.57
17635;BME280;8936;49.010;12.120;2023-05-25T01:06:33;98267.19;;;17.08;80.23
17635;BME280;8936;49.010;12.120;2023-05-25T01:09:03;98270.41;;;17.37;77.57
17635;BME280;8936;49.010;12.120;2023-05-25T01:11:31;98275.81;;;17.23;77.87
17635;BME280;8936;49.010;12.120;2023-05-25T01:13:58;98276.22;;;17.31;77.11
17635;BME280;8936;49.010;12.120;2023-05-25T01:16:24;98280.31;;;17.28;76.53
17635;BME280;8936;49.010;12.120;2023-05-25T01:18:51;98270.31;;;17.28;76.62
17635;BME280;8936;49.010;12.120;2023-05-25T01:21:20;98277.06;;;17.12;77.83
17635;BME280;8936;49.010;12.120;2023-05-25T01:23:50;98280.28;;;16.82;80.44
17635;BME280;8936;49.010;12.120;2023-05-25T01:26:17;98272.75;;;16.98;79.82
17635;BME280;8936;49.010;12.120;2023-05-25T01:28:46;98274.03;;;17.00;79.23
17635;BME280;8936;49.010;12.120;2023-05-25T01:31:15;98273.56;;;16.80;81.28
17635;BME280;8936;49.010;12.120;2023-05-25T01:33:43;98278.16;;;16.42;83.50
17635;BME280;8936;49.010;12.120;2023-05-25T01:36:10;98263.44;;;16.53;83.70
17635;BME280;8936;49.010;12.120;2023-05-25T01:38:38;98270.28;;;16.45;86.16
17635;BME280;8936;49.010;12.120;2023-05-25T01:41:04;98263.41;;;16.90;82.35
17635;BME280;8936;49.010;12.120;2023-05-25T01:43:31;98256.81;;;16.27;85.67
17635;BME280;8936;49.010;12.120;2023-05-25T01:46:01;98261.94;;;15.86;90.10
17635;BME280;8936;49.010;12.120;2023-05-25T01:48:32;98261.41;;;16.26;89.28
17635;BME280;8936;49.010;12.120;2023-05-25T01:51:04;98259.41;;;16.55;85.95
17635;BME280;8936;49.010;12.120;2023-05-25T01:53:33;98267.97;;;16.39;86.02
17635;BME280;8936;49.010;12.120;2023-05-25T01:56:04;98264.41;;;16.62;84.71
17635;BME280;8936;49.010;12.120;2023-05-25T01:58:33;98267.63;;;16.64;83.90
17635;BME280;8936;49.010;12.120;2023-05-25T02:01:00;98262.22;;;16.27;87.20
17635;BME280;8936;49.010;12.120;2023-05-25T02:03:27;98271.50;;;16.15;88.08
17635;BME280;8936;49.010;12.120;2023-05-25T02:05:53;98274.03;;;16.49;85.73
17635;BME280;8936;49.010;12.120;2023-05-25T02:08:22;98268.44;;;16.64;84.06
17635;BME280;8936;49.010;12.120;2023-05-25T02:10:48;98265.63;;;16.88;82.43
17635;BME280;8936;49.010;12.120;2023-05-25T02:13:16;98274.63;;;17.43;79.52
17635;BME280;8936;49.010;12.120;2023-05-25T02:15:42;98262.13;;;17.34;78.30
17635;BME280;8936;49.010;12.120;2023-05-25T02:18:09;98262.59;;;17.22;77.98
17635;BME280;8936;49.010;12.120;2023-05-25T02:20:35;98265.78;;;17.24;78.31
17635;BME280;8936;49.010;12.120;2023-05-25T02:23:01;98265.63;;;17.20;78.40
17635;BME280;8936;49.010;12.120;2023-05-25T02:25:28;98261.44;;;17.42;77.51
17635;BME280;8936;49.010;12.120;2023-05-25T02:27:54;98257.16;;;17.54;76.69
17635;BME280;8936;49.010;12.120;2023-05-25T02:30:22;98253.56;;;17.59;75.75
17635;BME280;8936;49.010;12.120;2023-05-25T02:32:48;98253.09;;;17.24;77.46
17635;BME280;8936;49.010;12.120;2023-05-25T02:35:15;98243.41;;;17.23;77.56
17635;BME280;8936;49.010;12.120;2023-05-25T02:37:42;98251.63;;;17.46;77.28
17635;BME280;8936;49.010;12.120;2023-05-25T02:40:09;98251.84;;;17.49;76.97
17635;BME280;8936;49.010;12.120;2023-05-25T02:42:35;98254.72;;;17.25;76.94
17635;BME280;8936;49.010;12.120;2023-05-25T02:45:02;98251.25;;;16.93;79.06
17635;BME280;8936;49.010;12.120;2023-05-25T02:47:31;98246.84;;;16.46;83.80
17635;BME280;8936;49.010;12.120;2023-05-25T02:49:58;98259.06;;;16.38;85.64
17635;BME280;8936;49.010;12.120;2023-05-25T02:52:24;98255.56;;;16.75;83.61
17635;BME280;8936;49.010;12.120;2023-05-25T02:54:51;98249.59;;;16.41;86.21
17635;BME280;8936;49.010;12.120;2023-05-25T02:57:17;98268.47;;;15.80;90.59
17635;BME280;8936;49.010;12.120;2023-05-25T02:59:43;98270.78;;;15.68;91.94
17635;BME280;8936;49.010;12.120;2023-05-25T03:02:10;98272.50;;;16.25;89.97
17635;BME280;8936;49.010;12.120;2023-05-25T03:04:38;98271.19;;;15.98;90.61
17635;BME280;8936;49.010;12.120;2023-05-25T03:07:06;98276.38;;;15.71;91.50
17635;BME280;8936;49.010;12.120;2023-05-25T03:09:32;98272.81;;;15.99;91.25
17635;BME280;8936;49.010;12.120;2023-05-25T03:11:58;98282.03;;;15.70;92.21
17635;BME280;8936;49.010;12.120;2023-05-25T03:14:25;98275.31;;;15.91;91.15
17635;BME280;8936;49.010;12.120;2023-05-25T03:16:51;98282.13;;;15.64;93.66
17635;BME280;8936;49.010;12.120;2023-05-25T03:19:18;98285.16;;;15.58;93.38
17635;BME280;8936;49.010;12.120;2023-05-25T03:21:46;98287.50;;;15.64;92.54
17635;BME280;8936;49.010;12.120;2023-05-25T03:24:12;98288.31;;;15.65;93.56
17635;BME280;8936;49.010;12.120;2023-05-25T03:26:39;98289.22;;;15.79;93.43
17635;BME280;8936;49.010;12.120;2023-05-25T03:29:05;98284.97;;;16.15;90.72
17635;BME280;8936;49.010;12.120;2023-05-25T03:31:31;98292.53;;;15.95;90.03
17635;BME280;8936;49.010;12.120;2023-05-25T03:33:58;98288.06;;;15.85;92.42
17635;BME280;8936;49.010;12.120;2023-05-25T03:36:24;98294.53;;;15.60;94.08
17635;BME280;8936;49.010;12.120;2023-05-25T03:38:53;98286.03;;;15.72;93.62
17635;BME280;8936;49.010;12.120;2023-05-25T03:41:20;98292.75;;;15.51;95.34
17635;BME280;8936;49.010;12.120;2023-05-25T03:43:46;98288.47;;;15.74;94.10
17635;BME280;8936;49.010;12.120;2023-05-25T03:46:12;98281.38;;;15.30;97.17
17635;BME280;8936;49.010;12.120;2023-05-25T03:48:39;98288.25;;;15.12;98.57
17635;BME280;8936;49.010;12.120;2023-05-25T03:51:05;98296.09;;;15.09;100.00
17635;BME280;8936;49.010;12.120;2023-05-25T03:53:32;98293.53;;;15.23;98.82
17635;BME280;8936;49.010;12.120;2023-05-25T03:55:59;98300.84;;;15.46;96.73
17635;BME280;8936;49.010;12.120;2023-05-25T03:58:26;98300.16;;;15.06;99.62
17635;BME280;8936;49.010;12.120;2023-05-25T04:00:52;98304.53;;;14.97;100.00
17635;BME280;8936;49.010;12.120;2023-05-25T04:03:19;98303.19;;;15.29;98.97
17635;BME280;8936;49.010;12.120;2023-05-25T04:05:45;98315.97;;;15.42;98.78
17635;BME280;8936;49.010;12.120;2023-05-25T04:08:12;98306.47;;;15.21;99.76
17635;BME280;8936;49.010;12.120;2023-05-25T04:10:41;98318.78;;;15.27;99.43
17635;BME280;8936;49.010;12.120;2023-05-25T04:13:09;98306.97;;;14.94;100.00
17635;BME280;8936;49.010;12.120;2023-05-25T04:15:35;98307.75;;;15.28;99.46
17635;BME280;8936;49.010;12.120;2023-05-25T04:18:02;98309.19;;;15.49;97.72
17635;BME280;8936;49.010;12.120;2023-05-25T04:20:28;98299.81;;;15.71;94.42
17635;BME280;8936;49.010;12.120;2023-05-25T04:22:55;98308.06;;;16.03;92.38
17635;BME280;8936;49.010;12.120;2023-05-25T04:25:21;98300.56;;;15.76;93.38
17635;BME280;8936;49.010;12.120;2023-05-25T04:27:48;98306.00;;;15.42;97.16
17635;BME280;8936;49.010;12.120;2023-05-25T04:30:15;98304.59;;;15.21;99.90
17635;BME280;8936;49.010;12.120;2023-05-25T04:32:42;98305.38;;;15.55;98.30
17635;BME280;8936;49.010;12.120;2023-05-25T04:35:10;98304.09;;;15.48;98.21
17635;BME280;8936;49.010;12.120;2023-05-25T04:37:38;98312.72;;;15.16;100.00
17635;BME280;8936;49.010;12.120;2023-05-25T04:40:05;98315.91;;;15.52;98.73
17635;BME280;8936;49.010;12.120;2023-05-25T04:42:34;98329.53;;;15.60;98.29
17635;BME280;8936;49.010;12.120;2023-05-25T04:45:02;98315.97;;;15.94;94.29
17635;BME280;8936;49.010;12.120;2023-05-25T04:47:30;98327.66;;;15.85;95.78
17635;BME280;8936;49.010;12.120;2023-05-25T04:49:56;98333.41;;;16.02;94.35
17635;BME280;8936;49.010;12.120;2023-05-25T04:52:22;98324.84;;;15.95;94.95
17635;BME280;8936;49.010;12.120;2023-05-25T04:54:49;98332.44;;;15.35;99.61
17635;BME280;8936;49.010;12.120;2023-05-25T04:57:15;98329.69;;;15.11;100.00
17635;BME280;8936;49.010;12.120;2023-05-25T04:59:42;98333.06;;;14.93;100.00
17635;BME280;8936;49.010;12.120;2023-05-25T05:02:08;98330.72;;;15.44;100.00
17635;BME280;8936;49.010;12.120;2023-05-25T05:04:36;98334.38;;;15.30;100.00
17635;BME280;8936;49.010;12.120;2023-05-25T05:07:02;98331.13;;;15.33;100.00
17635;BME280;8936;49.010;12.120;2023-05-25T05:09:29;98342.81;;;15.52;100.00
17635;BME280;8936;49.010;12.120;2023-05-25T05:11:55;98336.09;;;15.78;99.27
17635;BME280;8936;49.010;12.120;2023-05-25T05:14:21;98328.41;;;15.90;97.72
17635;BME280;8936;49.010;12.120;2023-05-25T05:16:48;98337.56;;;15.89;97.00
17635;BME280;8936;49.010;12.120;2023-05-25T05:19:15;98340.28;;;15.89;96.49
17635;BME280;8936;49.010;12.120;2023-05-25T05:21:43;98330.22;;;15.13;100.00
17635;BME280;8936;49.010;12.120;2023-05-25T05:24:09;98332.94;;;14.75;100.00
17635;BME280;8936;49.010;12.120;2023-05-25T05:26:37;98336.84;;;14.92;100.00
17635;BME280;8936;49.010;12.120;2023-05-25T05:29:04;98338.09;;;15.05;100.00
17635;BME280;8936;49.010;12.120;2023-05-25T05:31:30;98341.19;;;15.51;100.00
17635;BME280;8936;49.010;12.120;2023-05-25T05:33:57;98350.16;;;15.70;100.00
17635;BME280;8936;49.010;12.120;2023-05-25T05:36:23;98344.03;;;16.36;94.81
17635;BME280;8936;49.010;12.120;2023-05-25T05:38:51;98343.22;;;16.54;92.78
17635;BME280;8936;49.010;12.120;2023-05-25T05:41:18;98351.22;;;16.64;91.71
17635;BME280;8936;49.010;12.120;2023-05-25T05:43:44;98357.38;;;16.46;92.36
17635;BME280;8936;49.010;12.120;2023-05-25T05:46:11;98356.25;;;16.47;92.74
17635;BME280;8936;49.010;12.120;2023-05-25T05:48:37;98354.72;;;17.02;89.54
17635;BME280;8936;49.010;12.120;2023-05-25T05:51:04;98350.69;;;16.99;88.07
17635;BME280;8936;49.010;12.120;2023-05-25T05:53:30;98355.19;;;17.55;84.81
17635;BME280;8936;49.010;12.120;2023-05-25T05:55:59;98349.44;;;17.75;82.85
17635;BME280;8936;49.010;12.120;2023-05-25T05:58:25;98347.63;;;17.52;82.99
17635;BME280;8936;49.010;12.120;2023-05-25T06:00:52;98345.22;;;17.37;85.08
17635;BME280;8936;49.010;12.120;2023-05-25T06:03:18;98346.84;;;17.70;83.51
17635;BME280;8936;49.010;12.120;2023-05-25T06:05:45;98351.22;;;17.79;82.64
17635;BME280;8936;49.010;12.120;2023-05-25T06:08:11;98349.03;;;17.82;82.40
17635;BME280;8936;49.010;12.120;2023-05-25T06:10:38;98347.81;;;17.74;83.00
17635;BME280;8936;49.010;12.120;2023-05-25T06:13:06;98342.34;;;17.79;82.57
17635;BME280;8936;49.010;12.120;2023-05-25T06:15:32;98359.25;;;17.98;81.34
17635;BME280;8936;49.010;12.120;2023-05-25T06:17:59;98343.53;;;17.87;80.96
17635;BME280;8936;49.010;12.120;2023-05-25T06:20:26;98350.53;;;18.01;81.07
17635;BME280;8936;49.010;12.120;2023-05-25T06:22:52;98345.84;;;17.93;79.37
17635;BME280;8936;49.010;12.120;2023-05-25T06:25:19;98337.53;;;17.76;80.34
17635;BME280;8936;49.010;12.120;2023-05-25T06:27:45;98341.44;;;18.24;79.96
17635;BME280;8936;49.010;12.120;2023-05-25T06:30:13;98346.13;;;18.32;78.41
17635;BME280;8936;49.010;12.120;2023-05-25T06:32:39;98343.53;;;18.27;76.92
17635;BME280;8936;49.010;12.120;2023-05-25T06:35:07;98346.91;;;18.33;76.44
17635;BME280;8936;49.010;12.120;2023-05-25T06:37:36;98351.44;;;18.24;76.33
17635;BME280;8936;49.010;12.120;2023-05-25T06:40:02;98359.47;;;18.15;76.54
17635;BME280;8936;49.010;12.120;2023-05-25T06:42:29;98365.94;;;18.14;76.79
17635;BME280;8936;49.010;12.120;2023-05-25T06:44:56;98371.88;;;18.03;77.17
17635;BME280;8936;49.010;12.120;2023-05-25T06:47:23;98363.41;;;18.72;76.34
17635;BME280;8936;49.010;12.120;2023-05-25T06:49:50;98366.47;;;18.93;73.94
17635;BME280;8936;49.010;12.120;2023-05-25T06:52:16;98365.34;;;19.16;72.40
17635;BME280;8936;49.010;12.120;2023-05-25T06:54:42;98370.44;;;19.09;72.33
17635;BME280;8936;49.010;12.120;2023-05-25T06:57:09;98364.03;;;19.50;71.05
17635;BME280;8936;49.010;12.120;2023-05-25T06:59:35;98369.75;;;19.48;67.72
17635;BME280;8936;49.010;12.120;2023-05-25T07:02:02;98366.78;;;19.14;69.10
17635;BME280;8936;49.010;12.120;2023-05-25T07:04:29;98369.78;;;18.90;68.63
17635;BME280;8936;49.010;12.120;2023-05-25T07:06:57;98367.19;;;19.07;69.39
17635;BME280;8936;49.010;12.120;2023-05-25T07:09:23;98365.63;;;19.06;68.46
17635;BME280;8936;49.010;12.120;2023-05-25T07:11:49;98368.81;;;19.30;69.09
17635;BME280;8936;49.010;12.120;2023-05-25T07:14:16;98367.81;;;19.04;66.57
17635;BME280;8936;49.010;12.120;2023-05-25T07:16:42;98363.75;;;18.93;67.97
17635;BME280;8936;49.010;12.120;2023-05-25T07:19:09;98363.84;;;18.88;67.58
17635;BME280;8936;49.010;12.120;2023-05-25T07:21:36;98383.75;;;18.70;68.21
17635;BME280;8936;49.010;12.120;2023-05-25T07:24:03;98370.91;;;19.11;69.27
17635;BME280;8936;49.010;12.120;2023-05-25T07:26:30;98367.44;;;19.19;67.47
17635;BME280;8936;49.010;12.120;2023-05-25T07:28:57;98370.66;;;18.99;67.58
17635;BME280;8936;49.010;12.120;2023-05-25T07:31:23;98370.09;;;19.11;68.10
17635;BME280;8936;49.010;12.120;2023-05-25T07:33:50;98374.03;;;19.05;68.04
17635;BME280;8936;49.010;12.120;2023-05-25T07:36:17;98379.50;;;19.13;67.83
17635;BME280;8936;49.010;12.120;2023-05-25T07:38:46;98376.84;;;19.58;67.23
17635;BME280;8936;49.010;12.120;2023-05-25T07:41:12;98375.53;;;19.55;65.05
17635;BME280;8936;49.010;12.120;2023-05-25T07:43:38;98382.69;;;19.82;66.08
17635;BME280;8936;49.010;12.120;2023-05-25T07:46:05;98369.84;;;19.96;63.35
17635;BME280;8936;49.010;12.120;2023-05-25T07:48:31;98376.56;;;19.01;64.27
17635;BME280;8936;49.010;12.120;2023-05-25T07:50:58;98369.81;;;19.57;65.20
17635;BME280;8936;49.010;12.120;2023-05-25T07:53:24;98380.34;;;19.00;64.40
17635;BME280;8936;49.010;12.120;2023-05-25T07:55:52;98380.91;;;18.88;65.90
17635;BME280;8936;49.010;12.120;2023-05-25T07:58:18;98378.25;;;18.97;65.37
17635;BME280;8936;49.010;12.120;2023-05-25T08:00:45;98385.16;;;18.81;65.92
17635;BME280;8936;49.010;12.120;2023-05-25T08:03:13;98381.22;;;18.87;65.79
17635;BME280;8936;49.010;12.120;2023-05-25T08:05:40;98383.94;;;18.73;66.43
17635;BME280;8936;49.010;12.120;2023-05-25T08:08:08;98386.28;;;19.02;65.51
17635;BME280;8936;49.010;12.120;2023-05-25T08:10:34;98378.28;;;19.19;66.36
17635;BME280;8936;49.010;12.120;2023-05-25T08:13:02;98389.25;;;19.14;64.33
17635;BME280;8936;49.010;12.120;2023-05-25T08:15:28;98388.66;;;18.81;65.40
17635;BME280;8936;49.010;12.120;2023-05-25T08:17:55;98381.22;;;18.87;66.20
17635;BME280;8936;49.010;12.120;2023-05-25T08:20:21;98381.84;;;18.84;66.16
17635;BME280;8936;49.010;12.120;2023-05-25T08:22:49;98381.22;;;18.87;65.92
17635;BME280;8936;49.010;12.120;2023-05-25T08:25:17;98387.53;;;18.82;66.01
17635;BME280;8936;49.010;12.120;2023-05-25T08:27:43;98386.53;;;19.14;66.66
17635;BME280;8936;49.010;12.120;2023-05-25T08:30:11;98387.31;;;19.81;64.03
17635;BME280;8936;49.010;12.120;2023-05-25T08:32:38;98381.38;;;20.41;63.71
17635;BME280;8936;49.010;12.120;2023-05-25T08:35:05;98390.44;;;19.97;62.10
17635;BME280;8936;49.010;12.120;2023-05-25T08:37:32;98385.16;;;19.92;63.32
17635;BME280;8936;49.010;12.120;2023-05-25T08:39:58;98392.94;;;20.24;61.76
17635;BME280;8936;49.010;12.120;2023-05-25T08:42:26;98385.00;;;19.66;62.05
17635;BME280;8936;49.010;12.120;2023-05-25T08:44:53;98381.03;;;19.42;63.22
17635;BME280;8936;49.010;12.120;2023-05-25T08:47:22;98394.88;;;19.93;62.34
17635;BME280;8936;49.010;12.120;2023-05-25T08:49:49;98391.78;;;19.77;62.10
17635;BME280;8936;49.010;12.120;2023-05-25T08:52:20;98396.09;;;19.87;61.45
17635;BME280;8936;49.010;12.120;2023-05-25T08:54:46;98389.31;;;19.67;62.29
17635;BME280;8936;49.010;12.120;2023-05-25T08:57:16;98395.41;;;19.73;62.19
17635;BME280;8936;49.010;12.120;2023-05-25T08:59:45;98389.75;;;19.61;61.33
17635;BME280;8936;49.010;12.120;2023-05-25T09:02:24;98390.34;;;19.80;60.46
17635;BME280;8936;49.010;12.120;2023-05-25T09:04:51;98390.91;;;19.68;61.40
17635;BME280;8936;49.010;12.120;2023-05-25T09:07:18;98407.34;;;19.72;60.07
17635;BME280;8936;49.010;12.120;2023-05-25T09:09:45;98403.72;;;20.46;60.26
17635;BME280;8936;49.010;12.120;2023-05-25T09:12:13;98391.41;;;20.32;59.30
17635;BME280;8936;49.010;12.120;2023-05-25T09:14:40;98391.34;;;20.23;58.24
17635;BME280;8936;49.010;12.120;2023-05-25T09:17:10;98389.19;;;20.03;59.99
17635;BME280;8936;49.010;12.120;2023-05-25T09:19:37;98384.13;;;19.79;59.72
17635;BME280;8936;49.010;12.120;2023-05-25T09:22:04;98384.03;;;19.93;59.73
17635;BME280;8936;49.010;12.120;2023-05-25T09:24:30;98394.06;;;20.23;59.75
17635;BME280;8936;49.010;12.120;2023-05-25T09:26:57;98398.84;;;20.74;59.51
17635;BME280;8936;49.010;12.120;2023-05-25T09:29:24;98396.47;;;21.59;57.82
17635;BME280;8936;49.010;12.120;2023-05-25T09:31:51;98392.75;;;21.89;56.60
17635;BME280;8936;49.010;12.120;2023-05-25T09:34:17;98390.75;;;22.06;55.51
17635;BME280;8936;49.010;12.120;2023-05-25T09:36:46;98395.19;;;21.56;54.56
17635;BME280;8936;49.010;12.120;2023-05-25T09:39:12;98399.63;;;20.75;55.68
17635;BME280;8936;49.010;12.120;2023-05-25T09:41:40;98400.91;;;20.77;57.06
17635;BME280;8936;49.010;12.120;2023-05-25T09:44:07;98408.41;;;20.72;55.93
17635;BME280;8936;49.010;12.120;2023-05-25T09:46:34;98404.56;;;20.64;55.82
17635;BME280;8936;49.010;12.120;2023-05-25T09:49:03;98397.72;;;20.75;55.40
17635;BME280;8936;49.010;12.120;2023-05-25T09:51:29;98399.94;;;20.65;54.84
17635;BME280;8936;49.010;12.120;2023-05-25T09:53:58;98400.63;;;20.79;56.15
17635;BME280;8936;49.010;12.120;2023-05-25T09:56:25;98399.47;;;20.80;55.66
17635;BME280;8936;49.010;12.120;2023-05-25T09:58:52;98397.84;;;20.62;54.92
17635;BME280;8936;49.010;12.120;2023-05-25T10:01:18;98398.53;;;20.76;55.67
17635;BME280;8936;49.010;12.120;2023-05-25T10:03:45;98391.13;;;20.42;56.13
17635;BME280;8936;49.010;12.120;2023-05-25T10:06:12;98404.72;;;20.20;56.49
17635;BME280;8936;49.010;12.120;2023-05-25T10:08:39;98405.75;;;20.32;56.63
17635;BME280;8936;49.010;12.120;2023-05-25T10:11:10;98404.25;;;20.74;57.15
17635;BME280;8936;49.010;12.120;2023-05-25T10:13:38;98402.41;;;21.09;56.53
17635;BME280;8936;49.010;12.120;2023-05-25T10:16:05;98407.94;;;21.73;55.61
17635;BME280;8936;49.010;12.120;2023-05-25T10:18:33;98400.34;;;22.13;54.91
17635;BME280;8936;49.010;12.120;2023-05-25T10:21:01;98397.75;;;22.25;54.14
17635;BME280;8936;49.010;12.120;2023-05-25T10:23:28;98396.91;;;21.78;54.59
17635;BME280;8936;49.010;12.120;2023-05-25T10:25:56;98405.28;;;21.30;54.23
17635;BME280;8936;49.010;12.120;2023-05-25T10:28:27;98390.91;;;21.12;54.96
17635;BME280;8936;49.010;12.120;2023-05-25T10:30:55;98402.81;;;21.88;54.75
17635;BME280;8936;49.010;12.120;2023-05-25T10:33:22;98399.56;;;22.12;52.81
17635;BME280;8936;49.010;12.120;2023-05-25T10:35:48;98391.91;;;22.35;52.19
17635;BME280;8936;49.010;12.120;2023-05-25T10:38:15;98391.75;;;22.31;53.30
17635;BME280;8936;49.010;12.120;2023-05-25T10:40:42;98395.78;;;21.70;53.13
17635;BME280;8936;49.010;12.120;2023-05-25T10:43:11;98401.25;;;21.62;53.60
17635;BME280;8936;49.010;12.120;2023-05-25T10:45:40;98392.56;;;21.85;52.63
17635;BME280;8936;49.010;12.120;2023-05-25T10:48:07;98394.47;;;22.02;50.64
17635;BME280;8936;49.010;12.120;2023-05-25T10:50:34;98383.13;;;21.91;51.50
17635;BME280;8936;49.010;12.120;2023-05-25T10:53:02;98383.31;;;21.78;50.39
17635;BME280;8936;49.010;12.120;2023-05-25T10:55:29;98391.34;;;21.57;50.27
17635;BME280;8936;49.010;12.120;2023-05-25T10:58:06;98391.69;;;21.56;50.55
17635;BME280;8936;49.010;12.120;2023-05-25T11:00:34;98396.13;;;21.69;50.35
17635;BME280;8936;49.010;12.120;2023-05-25T11:03:01;98395.47;;;21.89;50.20
17635;BME280;8936;49.010;12.120;2023-05-25T11:05:32;98396.91;;;21.78;51.07
17635;BME280;8936;49.010;12.120;2023-05-25T11:07:59;98390.38;;;21.62;50.14
17635;BME280;8936;49.010;12.120;2023-05-25T11:13:31;98380.22;;;22.05;50.83
17635;BME280;8936;49.010;12.120;2023-05-25T11:16:16;98370.28;;;22.09;49.98
17635;BME280;8936;49.010;12.120;2023-05-25T11:18:45;98374.72;;;22.14;50.77
17635;BME280;8936;49.010;12.120;2023-05-25T11:21:14;98374.69;;;22.51;49.93
17635;BME280;8936;49.010;12.120;2023-05-25T11:23:52;98383.91;;;22.00;49.10
17635;BME280;8936;49.010;12.120;2023-05-25T11:26:19;98370.66;;;22.28;51.03
17635;BME280;8936;49.010;12.120;2023-05-25T11:28:47;98375.53;;;22.14;49.16
17635;BME280;8936;49.010;12.120;2023-05-25T11:31:13;98370.38;;;22.21;49.89
17635;BME280;8936;49.010;12.120;2023-05-25T11:33:40;98369.38;;;22.34;48.96
17635;BME280;8936;49.010;12.120;2023-05-25T11:36:10;98361.50;;;22.33;49.80
17635;BME280;8936;49.010;12.120;2023-05-25T11:38:40;98353.72;;;22.52;49.14
17635;BME280;8936;49.010;12.120;2023-05-25T11:41:14;98358.38;;;22.51;49.64
17635;BME280;8936;49.010;12.120;2023-05-25T11:43:40;98346.53;;;22.47;49.74
17635;BME280;8936;49.010;12.120;2023-05-25T11:46:07;98358.38;;;22.51;50.08
17635;BME280;8936;49.010;12.120;2023-05-25T11:48:34;98352.91;;;22.51;49.97
17635;BME280;8936;49.010;12.120;2023-05-25T11:51:04;98342.88;;;22.73;50.84
17635;BME280;8936;49.010;12.120;2023-05-25T11:53:32;98350.19;;;22.81;49.91
17635;BME280;8936;49.010;12.120;2023-05-25T11:55:58;98352.38;;;22.67;50.43
17635;BME280;8936;49.010;12.120;2023-05-25T11:58:25;98359.34;;;22.76;50.77
17635;BME280;8936;49.010;12.120;2023-05-25T12:01:07;98362.50;;;22.87;50.90
17635;BME280;8936;49.010;12.120;2023-05-25T12:03:37;98358.69;;;22.79;51.04
17635;BME280;8936;49.010;12.120;2023-05-25T12:06:04;98349.19;;;22.85;50.85
17635;BME280;8936;49.010;12.120;2023-05-25T12:08:32;98348.84;;;22.66;51.10
17635;BME280;8936;49.010;12.120;2023-05-25T12:10:59;98348.03;;;22.66;51.59
17635;BME280;8936;49.010;12.120;2023-05-25T12:13:25;98347.72;;;22.88;51.02
17635;BME280;8936;49.010;12.120;2023-05-25T12:15:53;98338.88;;;22.91;50.79
17635;BME280;8936;49.010;12.120;2023-05-25T12:18:21;98339.31;;;22.81;51.09
17635;BME280;8936;49.010;12.120;2023-05-25T12:20:48;98339.03;;;22.74;51.32
17635;BME280;8936;49.010;12.120;2023-05-25T12:23:14;98338.09;;;22.70;51.03
17635;BME280;8936;49.010;12.120;2023-05-25T12:25:42;98334.59;;;22.90;52.36
17635;BME280;8936;49.010;12.120;2023-05-25T12:28:09;98343.13;;;23.00;51.91
17635;BME280;8936;49.010;12.120;2023-05-25T12:30:36;98335.75;;;23.01;51.73
17635;BME280;8936;49.010;12.120;2023-05-25T12:33:02;98335.72;;;22.89;51.33
17635;BME280;8936;49.010;12.120;2023-05-25T12:35:30;98337.78;;;22.92;51.77
17635;BME280;8936;49.010;12.120;2023-05-25T12:38:09;98329.13;;;23.10;51.57
17635;BME280;8936;49.010;12.120;2023-05-25T12:40:36;98325.09;;;22.96;51.20
17635;BME280;8936;49.010;12.120;2023-05-25T12:43:03;98326.06;;;22.91;51.16
17635;BME280;8936;49.010;12.120;2023-05-25T12:45:30;98316.06;;;22.83;51.17
17635;BME280;8936;49.010;12.120;2023-05-25T12:47:56;98326.41;;;22.90;51.80
17635;BME280;8936;49.010;12.120;2023-05-25T12:50:23;98327.38;;;23.06;51.74
17635;BME280;8936;49.010;12.120;2023-05-25T12:52:49;98327.19;;;23.11;51.64
17635;BME280;8936;49.010;12.120;2023-05-25T12:55:22;98331.09;;;23.22;51.80
17635;BME280;8936;49.010;12.120;2023-05-25T12:57:52;98313.34;;;23.16;51.92
17635;BME280;8936;49.010;12.120;2023-05-25T13:00:21;98318.03;;;22.95;51.10
17635;BME280;8936;49.010;12.120;2023-05-25T13:02:48;98326.88;;;22.92;51.09